sensor_id;sensor_type;location;lat;lon;timestamp;P1;P2;P0
75960;PMS7003;64644;48.914;2.254;2023-02-28T00:00:17;13.50;10.00;5.50
75960;PMS7003;64644;48.914;2.254;2023-02-28T00:02:44;15.50;15.50;12.50
75960;PMS7003;64644;48.914;2.254;2023-02-28T00:05:11;16.00;16.00;13.50
75960;PMS7003;64644;48.914;2.254;2023-02-28T00:07:39;21.50;17.50;11.00
75960;PMS7003;64644;48.914;2.254;2023-02-28T00:10:06;17.00;17.00;13.00
75960;PMS7003;64644;48.914;2.254;2023-02-28T00:12:33;16.50;15.25;12.00
75960;PMS7003;64644;48.914;2.254;2023-02-28T00:14:59;17.75;13.00;10.00
75960;PMS7003;64644;48.914;2.254;2023-02-28T00:17:24;14.75;11.50;7.00
75960;PMS7003;64644;48.914;2.254;2023-02-28T00:19:50;21.00;16.50;12.50
75960;PMS7003;64644;48.914;2.254;2023-02-28T00:22:17;21.50;16.00;10.50
75960;PMS7003;64644;48.914;2.254;2023-02-28T00:24:44;16.50;15.00;12.25
75960;PMS7003;64644;48.914;2.254;2023-02-28T00:27:11;18.00;17.50;12.50
75960;PMS7003;64644;48.914;2.254;2023-02-28T00:29:37;18.25;17.50;11.50
75960;PMS7003;64644;48.914;2.254;2023-02-28T00:32:02;18.00;15.75;10.00
75960;PMS7003;64644;48.914;2.254;2023-02-28T00:34:29;16.00;16.00;12.50
75960;PMS7003;64644;48.914;2.254;2023-02-28T00:36:54;23.50;19.50;12.00
75960;PMS7003;64644;48.914;2.254;2023-02-28T00:39:20;13.00;13.00;9.00
75960;PMS7003;64644;48.914;2.254;2023-02-28T00:41:46;13.50;12.75;9.50
75960;PMS7003;64644;48.914;2.254;2023-02-28T00:44:11;18.25;15.50;12.00
75960;PMS7003;64644;48.914;2.254;2023-02-28T00:46:37;15.75;12.75;9.75
75960;PMS7003;64644;48.914;2.254;2023-02-28T00:49:02;14.50;12.25;10.00
75960;PMS7003;64644;48.914;2.254;2023-02-28T00:51:28;16.00;16.00;12.00
75960;PMS7003;64644;48.914;2.254;2023-02-28T00:53:53;15.50;15.50;10.50
75960;PMS7003;64644;48.914;2.254;2023-02-28T00:56:19;17.50;12.50;8.00
75960;PMS7003;64644;48.914;2.254;2023-02-28T00:58:44;15.00;13.75;9.75
75960;PMS7003;64644;48.914;2.254;2023-02-28T01:01:10;19.00;17.25;13.00
75960;PMS7003;64644;48.914;2.254;2023-02-28T01:03:35;16.00;15.75;11.00
75960;PMS7003;64644;48.914;2.254;2023-02-28T01:06:01;15.50;13.50;10.00
75960;PMS7003;64644;48.914;2.254;2023-02-28T01:08:27;15.75;15.75;11.50
75960;PMS7003;64644;48.914;2.254;2023-02-28T01:10:52;15.75;13.50;9.00
75960;PMS7003;64644;48.914;2.254;2023-02-28T01:13:19;12.75;12.75;9.25
75960;PMS7003;64644;48.914;2.254;2023-02-28T01:15:51;16.00;12.75;10.00
75960;PMS7003;64644;48.914;2.254;2023-02-28T01:18:20;20.00;20.00;12.75
75960;PMS7003;64644;48.914;2.254;2023-02-28T01:20:46;18.75;16.25;13.75
75960;PMS7003;64644;48.914;2.254;2023-02-28T01:23:13;16.00;13.00;9.25
75960;PMS7003;64644;48.914;2.254;2023-02-28T01:25:38;16.00;15.00;11.50
75960;PMS7003;64644;48.914;2.254;2023-02-28T01:28:05;10.75;9.75;8.00
75960;PMS7003;64644;48.914;2.254;2023-02-28T01:30:30;18.75;12.50;9.75
75960;PMS7003;64644;48.914;2.254;2023-02-28T01:32:56;14.00;13.25;10.50
75960;PMS7003;64644;48.914;2.254;2023-02-28T01:35:22;15.50;13.25;10.00
75960;PMS7003;64644;48.914;2.254;2023-02-28T01:37:47;17.00;15.25;9.00
75960;PMS7003;64644;48.914;2.254;2023-02-28T01:40:13;15.50;13.75;8.25
75960;PMS7003;64644;48.914;2.254;2023-02-28T01:42:39;14.75;14.75;12.00
75960;PMS7003;64644;48.914;2.254;2023-02-28T01:48:03;12.00;12.00;9.00
75960;PMS7003;64644;48.914;2.254;2023-02-28T01:50:32;13.00;12.75;9.00
75960;PMS7003;64644;48.914;2.254;2023-02-28T01:53:01;13.50;12.75;10.00
75960;PMS7003;64644;48.914;2.254;2023-02-28T01:55:31;19.75;14.50;9.00
75960;PMS7003;64644;48.914;2.254;2023-02-28T01:57:58;13.00;12.75;10.00
75960;PMS7003;64644;48.914;2.254;2023-02-28T02:00:27;16.00;15.25;11.50
75960;PMS7003;64644;48.914;2.254;2023-02-28T02:02:57;14.00;13.00;9.50
75960;PMS7003;64644;48.914;2.254;2023-02-28T02:05:27;15.50;15.00;10.00
75960;PMS7003;64644;48.914;2.254;2023-02-28T02:07:56;11.50;9.25;6.25
75960;PMS7003;64644;48.914;2.254;2023-02-28T02:10:35;16.00;15.50;12.00
75960;PMS7003;64644;48.914;2.254;2023-02-28T02:34:21;9.25;9.25;6.75
75960;PMS7003;64644;48.914;2.254;2023-02-28T02:37:29;12.00;11.00;7.00
75960;PMS7003;64644;48.914;2.254;2023-02-28T02:40:02;12.00;11.00;9.75
75960;PMS7003;64644;48.914;2.254;2023-02-28T02:45:15;12.75;10.00;7.50
75960;PMS7003;64644;48.914;2.254;2023-02-28T02:47:47;9.75;9.00;7.00
75960;PMS7003;64644;48.914;2.254;2023-02-28T02:50:17;11.50;9.25;7.00
75960;PMS7003;64644;48.914;2.254;2023-02-28T02:52:51;12.25;12.25;7.00
75960;PMS7003;64644;48.914;2.254;2023-02-28T02:55:20;11.50;11.00;8.00
75960;PMS7003;64644;48.914;2.254;2023-02-28T02:57:49;17.00;14.50;10.00
75960;PMS7003;64644;48.914;2.254;2023-02-28T03:00:20;11.00;10.50;7.50
75960;PMS7003;64644;48.914;2.254;2023-02-28T03:02:50;12.00;11.00;6.50
75960;PMS7003;64644;48.914;2.254;2023-02-28T03:05:23;12.50;12.50;9.75
75960;PMS7003;64644;48.914;2.254;2023-02-28T03:07:52;12.25;11.50;7.50
75960;PMS7003;64644;48.914;2.254;2023-02-28T03:10:34;9.75;9.75;8.00
75960;PMS7003;64644;48.914;2.254;2023-02-28T03:15:47;11.00;11.00;9.00
75960;PMS7003;64644;48.914;2.254;2023-02-28T03:27:15;12.00;11.00;7.50
75960;PMS7003;64644;48.914;2.254;2023-02-28T03:29:47;14.50;12.50;7.00
75960;PMS7003;64644;48.914;2.254;2023-02-28T03:37:40;11.00;10.50;9.00
75960;PMS7003;64644;48.914;2.254;2023-02-28T03:40:12;9.00;9.00;7.00
75960;PMS7003;64644;48.914;2.254;2023-02-28T03:42:47;12.25;11.50;6.75
75960;PMS7003;64644;48.914;2.254;2023-02-28T03:45:19;15.00;12.00;9.00
75960;PMS7003;64644;48.914;2.254;2023-02-28T03:47:53;8.50;6.75;3.00
75960;PMS7003;64644;48.914;2.254;2023-02-28T03:50:41;8.50;8.50;6.00
75960;PMS7003;64644;48.914;2.254;2023-02-28T03:53:16;11.00;10.00;7.50
75960;PMS7003;64644;48.914;2.254;2023-02-28T03:56:11;9.00;9.00;7.00
75960;PMS7003;64644;48.914;2.254;2023-02-28T03:58:46;8.50;8.50;4.00
75960;PMS7003;64644;48.914;2.254;2023-02-28T04:01:39;15.00;11.00;7.50
75960;PMS7003;64644;48.914;2.254;2023-02-28T04:04:08;12.75;12.75;9.50
75960;PMS7003;64644;48.914;2.254;2023-02-28T04:06:34;14.00;12.50;7.50
75960;PMS7003;64644;48.914;2.254;2023-02-28T04:09:00;15.00;9.75;8.00
75960;PMS7003;64644;48.914;2.254;2023-02-28T04:11:37;11.50;10.00;7.00
75960;PMS7003;64644;48.914;2.254;2023-02-28T04:14:08;10.00;9.00;7.00
75960;PMS7003;64644;48.914;2.254;2023-02-28T04:16:35;13.50;12.00;9.00
75960;PMS7003;64644;48.914;2.254;2023-02-28T04:19:03;14.50;11.50;7.00
75960;PMS7003;64644;48.914;2.254;2023-02-28T04:21:31;13.00;12.75;9.50
75960;PMS7003;64644;48.914;2.254;2023-02-28T04:23:58;12.75;10.00;7.00
75960;PMS7003;64644;48.914;2.254;2023-02-28T04:26:27;14.00;14.00;8.50
75960;PMS7003;64644;48.914;2.254;2023-02-28T04:28:54;11.00;11.00;7.00
75960;PMS7003;64644;48.914;2.254;2023-02-28T04:31:21;12.75;12.75;9.00
75960;PMS7003;64644;48.914;2.254;2023-02-28T04:33:46;13.00;13.00;9.00
75960;PMS7003;64644;48.914;2.254;2023-02-28T04:36:12;15.00;10.75;6.00
75960;PMS7003;64644;48.914;2.254;2023-02-28T04:38:39;8.50;8.50;7.00
75960;PMS7003;64644;48.914;2.254;2023-02-28T04:41:04;15.50;14.25;9.50
75960;PMS7003;64644;48.914;2.254;2023-02-28T04:43:31;13.50;13.00;12.00
75960;PMS7003;64644;48.914;2.254;2023-02-28T04:45:57;13.00;12.00;9.00
75960;PMS7003;64644;48.914;2.254;2023-02-28T04:48:27;13.50;12.00;9.50
75960;PMS7003;64644;48.914;2.254;2023-02-28T04:50:53;12.75;11.50;7.50
75960;PMS7003;64644;48.914;2.254;2023-02-28T04:53:18;12.00;11.00;9.75
75960;PMS7003;64644;48.914;2.254;2023-02-28T04:55:44;11.75;10.00;9.25
75960;PMS7003;64644;48.914;2.254;2023-02-28T04:58:10;14.50;13.00;11.50
75960;PMS7003;64644;48.914;2.254;2023-02-28T05:00:36;16.50;15.00;9.75
75960;PMS7003;64644;48.914;2.254;2023-02-28T05:03:02;14.25;14.00;11.00
75960;PMS7003;64644;48.914;2.254;2023-02-28T05:05:27;11.75;11.00;8.50
75960;PMS7003;64644;48.914;2.254;2023-02-28T05:07:53;9.25;9.25;9.00
75960;PMS7003;64644;48.914;2.254;2023-02-28T05:10:20;12.25;12.25;9.25
75960;PMS7003;64644;48.914;2.254;2023-02-28T05:12:46;14.75;14.50;9.75
75960;PMS7003;64644;48.914;2.254;2023-02-28T05:15:13;13.00;13.00;9.25
75960;PMS7003;64644;48.914;2.254;2023-02-28T05:17:39;12.50;12.00;9.00
75960;PMS7003;64644;48.914;2.254;2023-02-28T05:20:05;10.50;10.50;9.00
75960;PMS7003;64644;48.914;2.254;2023-02-28T05:22:31;13.00;12.00;9.00
75960;PMS7003;64644;48.914;2.254;2023-02-28T05:24:57;19.25;12.00;8.50
75960;PMS7003;64644;48.914;2.254;2023-02-28T05:27:22;16.25;13.00;9.00
75960;PMS7003;64644;48.914;2.254;2023-02-28T05:29:48;18.75;15.00;10.00
75960;PMS7003;64644;48.914;2.254;2023-02-28T05:32:14;17.50;14.50;10.50
75960;PMS7003;64644;48.914;2.254;2023-02-28T05:34:39;14.50;14.50;10.00
75960;PMS7003;64644;48.914;2.254;2023-02-28T05:37:07;16.50;16.50;10.50
75960;PMS7003;64644;48.914;2.254;2023-02-28T05:39:36;19.25;17.00;13.50
75960;PMS7003;64644;48.914;2.254;2023-02-28T05:42:02;18.00;16.00;13.00
75960;PMS7003;64644;48.914;2.254;2023-02-28T05:44:28;19.50;16.00;10.50
75960;PMS7003;64644;48.914;2.254;2023-02-28T05:46:53;22.75;21.00;13.25
75960;PMS7003;64644;48.914;2.254;2023-02-28T05:49:18;23.00;19.75;12.00
75960;PMS7003;64644;48.914;2.254;2023-02-28T05:51:44;23.00;19.00;13.50
75960;PMS7003;64644;48.914;2.254;2023-02-28T05:54:09;20.25;14.50;7.50
75960;PMS7003;64644;48.914;2.254;2023-02-28T05:56:35;19.50;18.75;11.50
75960;PMS7003;64644;48.914;2.254;2023-02-28T05:59:02;23.50;21.50;15.00
75960;PMS7003;64644;48.914;2.254;2023-02-28T06:01:40;23.25;21.50;14.00
75960;PMS7003;64644;48.914;2.254;2023-02-28T06:04:12;18.00;17.50;12.75
75960;PMS7003;64644;48.914;2.254;2023-02-28T06:06:39;20.00;20.00;13.50
75960;PMS7003;64644;48.914;2.254;2023-02-28T06:09:05;22.00;21.00;15.00
75960;PMS7003;64644;48.914;2.254;2023-02-28T06:11:30;25.00;23.00;16.00
75960;PMS7003;64644;48.914;2.254;2023-02-28T06:13:57;26.50;22.00;15.75
75960;PMS7003;64644;48.914;2.254;2023-02-28T06:16:25;28.50;23.00;17.50
75960;PMS7003;64644;48.914;2.254;2023-02-28T06:18:51;24.25;24.25;17.50
75960;PMS7003;64644;48.914;2.254;2023-02-28T06:21:17;26.50;24.75;15.00
75960;PMS7003;64644;48.914;2.254;2023-02-28T06:23:43;28.00;27.00;18.75
75960;PMS7003;64644;48.914;2.254;2023-02-28T06:26:08;22.50;15.75;9.50
75960;PMS7003;64644;48.914;2.254;2023-02-28T06:28:34;25.25;24.75;18.75
75960;PMS7003;64644;48.914;2.254;2023-02-28T06:31:04;26.75;26.25;17.50
75960;PMS7003;64644;48.914;2.254;2023-02-28T06:33:31;25.25;24.75;16.25
75960;PMS7003;64644;48.914;2.254;2023-02-28T06:35:57;28.50;23.25;16.00
75960;PMS7003;64644;48.914;2.254;2023-02-28T06:38:22;29.50;27.00;18.50
75960;PMS7003;64644;48.914;2.254;2023-02-28T06:40:52;27.25;24.75;18.00
75960;PMS7003;64644;48.914;2.254;2023-02-28T06:43:22;30.00;27.00;18.50
75960;PMS7003;64644;48.914;2.254;2023-02-28T06:45:48;29.50;25.50;15.50
75960;PMS7003;64644;48.914;2.254;2023-02-28T06:48:14;26.25;26.25;17.50
75960;PMS7003;64644;48.914;2.254;2023-02-28T06:50:41;28.00;26.00;17.25
75960;PMS7003;64644;48.914;2.254;2023-02-28T06:53:09;20.50;19.50;14.00
75960;PMS7003;64644;48.914;2.254;2023-02-28T06:55:37;29.75;26.00;18.00
75960;PMS7003;64644;48.914;2.254;2023-02-28T06:58:02;21.75;20.00;15.00
75960;PMS7003;64644;48.914;2.254;2023-02-28T07:00:28;31.25;29.00;18.00
75960;PMS7003;64644;48.914;2.254;2023-02-28T07:02:53;29.50;27.50;17.00
75960;PMS7003;64644;48.914;2.254;2023-02-28T07:05:20;26.50;26.50;19.00
75960;PMS7003;64644;48.914;2.254;2023-02-28T07:07:45;28.25;24.50;15.50
75960;PMS7003;64644;48.914;2.254;2023-02-28T07:10:12;30.25;29.50;18.50
75960;PMS7003;64644;48.914;2.254;2023-02-28T07:12:39;36.75;33.00;19.00
75960;PMS7003;64644;48.914;2.254;2023-02-28T07:15:05;29.50;25.50;19.00
75960;PMS7003;64644;48.914;2.254;2023-02-28T07:17:31;30.50;30.50;18.25
75960;PMS7003;64644;48.914;2.254;2023-02-28T07:19:56;36.75;27.50;17.75
75960;PMS7003;64644;48.914;2.254;2023-02-28T07:22:22;28.50;26.00;15.50
75960;PMS7003;64644;48.914;2.254;2023-02-28T07:24:47;32.00;26.25;18.00
75960;PMS7003;64644;48.914;2.254;2023-02-28T07:27:13;32.25;29.00;20.00
75960;PMS7003;64644;48.914;2.254;2023-02-28T07:29:48;34.50;27.75;18.00
75960;PMS7003;64644;48.914;2.254;2023-02-28T07:32:16;27.50;25.00;17.50
75960;PMS7003;64644;48.914;2.254;2023-02-28T07:34:41;35.75;28.50;18.00
75960;PMS7003;64644;48.914;2.254;2023-02-28T07:37:07;38.00;29.75;16.50
75960;PMS7003;64644;48.914;2.254;2023-02-28T07:39:32;36.00;27.75;18.75
75960;PMS7003;64644;48.914;2.254;2023-02-28T07:41:58;34.75;29.75;19.50
75960;PMS7003;64644;48.914;2.254;2023-02-28T07:44:24;27.50;25.00;15.00
75960;PMS7003;64644;48.914;2.254;2023-02-28T07:46:50;24.75;21.75;18.25
75960;PMS7003;64644;48.914;2.254;2023-02-28T07:49:16;27.75;27.75;19.00
75960;PMS7003;64644;48.914;2.254;2023-02-28T07:51:41;32.75;29.25;20.50
75960;PMS7003;64644;48.914;2.254;2023-02-28T07:54:06;28.75;28.75;19.50
75960;PMS7003;64644;48.914;2.254;2023-02-28T07:56:32;38.75;35.00;22.00
75960;PMS7003;64644;48.914;2.254;2023-02-28T07:58:58;33.25;26.50;16.00
75960;PMS7003;64644;48.914;2.254;2023-02-28T08:01:23;33.75;27.75;18.25
75960;PMS7003;64644;48.914;2.254;2023-02-28T08:03:49;34.25;32.00;22.00
75960;PMS7003;64644;48.914;2.254;2023-02-28T08:06:15;32.75;27.25;21.00
75960;PMS7003;64644;48.914;2.254;2023-02-28T08:08:45;36.25;35.50;24.00
75960;PMS7003;64644;48.914;2.254;2023-02-28T08:11:11;35.25;30.50;17.25
75960;PMS7003;64644;48.914;2.254;2023-02-28T08:13:36;35.50;29.75;20.00
75960;PMS7003;64644;48.914;2.254;2023-02-28T08:16:02;32.75;28.25;20.00
75960;PMS7003;64644;48.914;2.254;2023-02-28T08:18:27;28.25;26.50;21.00
75960;PMS7003;64644;48.914;2.254;2023-02-28T08:20:53;30.50;27.00;18.25
75960;PMS7003;64644;48.914;2.254;2023-02-28T08:23:18;28.00;25.00;17.00
75960;PMS7003;64644;48.914;2.254;2023-02-28T08:25:44;33.25;26.75;21.00
75960;PMS7003;64644;48.914;2.254;2023-02-28T08:28:09;27.50;24.50;19.00
75960;PMS7003;64644;48.914;2.254;2023-02-28T08:30:35;24.50;24.50;18.00
75960;PMS7003;64644;48.914;2.254;2023-02-28T08:33:00;34.00;27.75;21.00
75960;PMS7003;64644;48.914;2.254;2023-02-28T08:35:26;26.50;23.50;18.50
75960;PMS7003;64644;48.914;2.254;2023-02-28T08:37:52;38.25;35.00;20.00
75960;PMS7003;64644;48.914;2.254;2023-02-28T08:40:17;39.50;30.25;20.50
75960;PMS7003;64644;48.914;2.254;2023-02-28T08:42:45;27.75;25.00;19.00
75960;PMS7003;64644;48.914;2.254;2023-02-28T08:45:11;39.25;31.00;21.75
75960;PMS7003;64644;48.914;2.254;2023-02-28T08:47:38;28.00;24.50;18.00
75960;PMS7003;64644;48.914;2.254;2023-02-28T08:50:04;35.00;28.50;19.00
75960;PMS7003;64644;48.914;2.254;2023-02-28T08:52:30;27.25;22.00;16.00
75960;PMS7003;64644;48.914;2.254;2023-02-28T08:54:56;24.50;22.50;15.50
75960;PMS7003;64644;48.914;2.254;2023-02-28T08:57:21;29.25;27.75;21.00
75960;PMS7003;64644;48.914;2.254;2023-02-28T08:59:46;25.25;24.75;19.50
75960;PMS7003;64644;48.914;2.254;2023-02-28T09:02:13;28.75;26.75;18.00
75960;PMS7003;64644;48.914;2.254;2023-02-28T09:04:40;23.00;21.25;13.50
75960;PMS7003;64644;48.914;2.254;2023-02-28T09:07:06;32.75;29.50;21.00
75960;PMS7003;64644;48.914;2.254;2023-02-28T09:09:31;26.00;26.00;18.00
75960;PMS7003;64644;48.914;2.254;2023-02-28T09:11:57;28.75;25.50;18.50
75960;PMS7003;64644;48.914;2.254;2023-02-28T09:14:22;30.50;27.50;18.50
75960;PMS7003;64644;48.914;2.254;2023-02-28T09:16:48;30.25;28.75;19.50
75960;PMS7003;64644;48.914;2.254;2023-02-28T09:19:13;30.50;25.50;18.75
75960;PMS7003;64644;48.914;2.254;2023-02-28T09:21:39;26.75;22.25;16.50
75960;PMS7003;64644;48.914;2.254;2023-02-28T09:24:04;30.75;26.50;18.00
75960;PMS7003;64644;48.914;2.254;2023-02-28T09:26:30;30.25;29.25;20.25
75960;PMS7003;64644;48.914;2.254;2023-02-28T09:28:56;25.75;21.00;15.25
75960;PMS7003;64644;48.914;2.254;2023-02-28T09:31:24;23.75;21.75;15.00
75960;PMS7003;64644;48.914;2.254;2023-02-28T09:33:53;26.25;25.75;18.00
75960;PMS7003;64644;48.914;2.254;2023-02-28T09:36:24;30.50;26.25;17.25
75960;PMS7003;64644;48.914;2.254;2023-02-28T09:38:50;27.75;23.25;14.50
75960;PMS7003;64644;48.914;2.254;2023-02-28T09:41:27;26.75;25.00;17.25
75960;PMS7003;64644;48.914;2.254;2023-02-28T09:44:03;37.50;31.25;20.75
75960;PMS7003;64644;48.914;2.254;2023-02-28T09:49:10;26.00;24.50;14.25
75960;PMS7003;64644;48.914;2.254;2023-02-28T09:54:18;24.00;23.00;15.25
75960;PMS7003;64644;48.914;2.254;2023-02-28T09:56:51;28.00;22.00;16.25
75960;PMS7003;64644;48.914;2.254;2023-02-28T09:59:33;29.75;24.25;16.50
75960;PMS7003;64644;48.914;2.254;2023-02-28T10:10:26;26.00;23.00;15.25
75960;PMS7003;64644;48.914;2.254;2023-02-28T10:13:14;23.50;23.50;16.75
75960;PMS7003;64644;48.914;2.254;2023-02-28T10:15:45;23.25;20.25;14.00
75960;PMS7003;64644;48.914;2.254;2023-02-28T10:18:16;28.25;17.75;16.00
75960;PMS7003;64644;48.914;2.254;2023-02-28T10:20:51;25.50;23.25;16.25
75960;PMS7003;64644;48.914;2.254;2023-02-28T10:23:41;22.50;17.00;12.75
75960;PMS7003;64644;48.914;2.254;2023-02-28T10:26:14;17.75;17.25;12.25
75960;PMS7003;64644;48.914;2.254;2023-02-28T10:28:42;27.50;23.50;16.50
75960;PMS7003;64644;48.914;2.254;2023-02-28T10:31:10;19.50;19.50;13.75
75960;PMS7003;64644;48.914;2.254;2023-02-28T10:33:40;22.50;20.50;15.25
75960;PMS7003;64644;48.914;2.254;2023-02-28T10:36:05;26.25;24.00;16.00
75960;PMS7003;64644;48.914;2.254;2023-02-28T10:38:33;22.25;20.75;14.50
75960;PMS7003;64644;48.914;2.254;2023-02-28T10:41:12;25.00;24.00;15.00
75960;PMS7003;64644;48.914;2.254;2023-02-28T10:43:40;20.50;18.50;14.00
75960;PMS7003;64644;48.914;2.254;2023-02-28T10:51:15;21.75;15.50;11.00
75960;PMS7003;64644;48.914;2.254;2023-02-28T11:01:15;18.00;17.00;11.00
75960;PMS7003;64644;48.914;2.254;2023-02-28T11:03:44;15.25;14.00;9.50
75960;PMS7003;64644;48.914;2.254;2023-02-28T11:06:15;19.00;17.25;12.75
75960;PMS7003;64644;48.914;2.254;2023-02-28T11:08:45;12.50;12.50;8.25
75960;PMS7003;64644;48.914;2.254;2023-02-28T11:11:21;14.50;11.00;9.00
75960;PMS7003;64644;48.914;2.254;2023-02-28T11:13:50;12.50;12.50;8.75
75960;PMS7003;64644;48.914;2.254;2023-02-28T11:16:19;11.75;9.25;6.75
75960;PMS7003;64644;48.914;2.254;2023-02-28T11:18:50;13.75;11.00;8.75
75960;PMS7003;64644;48.914;2.254;2023-02-28T11:21:28;9.50;9.50;7.25
75960;PMS7003;64644;48.914;2.254;2023-02-28T11:24:13;8.50;7.00;5.25
75960;PMS7003;64644;48.914;2.254;2023-02-28T11:26:48;11.75;11.75;8.25
75960;PMS7003;64644;48.914;2.254;2023-02-28T11:31:44;14.75;12.50;9.00
75960;PMS7003;64644;48.914;2.254;2023-02-28T11:34:36;13.50;13.50;9.50
75960;PMS7003;64644;48.914;2.254;2023-02-28T11:37:02;11.25;11.25;8.50
75960;PMS7003;64644;48.914;2.254;2023-02-28T11:39:30;14.00;13.25;10.75
75960;PMS7003;64644;48.914;2.254;2023-02-28T11:56:12;14.75;13.00;11.00
75960;PMS7003;64644;48.914;2.254;2023-02-28T11:59:09;19.00;15.50;12.00
75960;PMS7003;64644;48.914;2.254;2023-02-28T12:10:19;14.50;12.75;8.50
75960;PMS7003;64644;48.914;2.254;2023-02-28T12:12:54;14.50;12.00;9.00
75960;PMS7003;64644;48.914;2.254;2023-02-28T12:26:40;11.50;11.25;8.25
75960;PMS7003;64644;48.914;2.254;2023-02-28T12:31:51;11.75;11.75;7.00
75960;PMS7003;64644;48.914;2.254;2023-02-28T12:34:24;12.00;12.00;9.00
75960;PMS7003;64644;48.914;2.254;2023-02-28T12:36:53;12.25;9.00;8.00
75960;PMS7003;64644;48.914;2.254;2023-02-28T12:39:25;12.50;9.00;8.00
75960;PMS7003;64644;48.914;2.254;2023-02-28T12:41:59;9.75;9.00;8.00
75960;PMS7003;64644;48.914;2.254;2023-02-28T12:44:34;14.50;13.50;9.75
75960;PMS7003;64644;48.914;2.254;2023-02-28T12:47:08;11.25;11.25;9.00
75960;PMS7003;64644;48.914;2.254;2023-02-28T12:49:41;12.50;12.00;9.25
75960;PMS7003;64644;48.914;2.254;2023-02-28T12:52:09;12.25;12.25;10.75
75960;PMS7003;64644;48.914;2.254;2023-02-28T12:54:44;15.75;13.00;8.25
75960;PMS7003;64644;48.914;2.254;2023-02-28T12:57:30;1.50;1.50;0.00
75960;PMS7003;64644;48.914;2.254;2023-02-28T12:59:59;13.00;13.00;9.00
75960;PMS7003;64644;48.914;2.254;2023-02-28T13:10:52;14.75;14.75;8.75
75960;PMS7003;64644;48.914;2.254;2023-02-28T13:13:21;17.00;13.50;9.50
75960;PMS7003;64644;48.914;2.254;2023-02-28T13:18:43;14.00;13.00;10.50
75960;PMS7003;64644;48.914;2.254;2023-02-28T13:21:24;14.50;12.00;9.25
75960;PMS7003;64644;48.914;2.254;2023-02-28T13:34:31;13.25;12.75;9.00
75960;PMS7003;64644;48.914;2.254;2023-02-28T13:39:45;17.00;17.00;11.25
75960;PMS7003;64644;48.914;2.254;2023-02-28T13:47:31;17.75;14.00;10.00
75960;PMS7003;64644;48.914;2.254;2023-02-28T14:01:34;15.25;11.75;7.00
75960;PMS7003;64644;48.914;2.254;2023-02-28T14:07:09;12.25;12.25;10.00
75960;PMS7003;64644;48.914;2.254;2023-02-28T14:09:45;8.00;8.00;6.00
75960;PMS7003;64644;48.914;2.254;2023-02-28T14:21:09;8.75;8.75;8.00
75960;PMS7003;64644;48.914;2.254;2023-02-28T14:38:55;9.00;8.00;6.25
75960;PMS7003;64644;48.914;2.254;2023-02-28T14:41:35;10.50;10.50;8.50
75960;PMS7003;64644;48.914;2.254;2023-02-28T14:44:20;12.00;11.50;8.00
75960;PMS7003;64644;48.914;2.254;2023-02-28T14:46:48;13.25;10.00;8.00
75960;PMS7003;64644;48.914;2.254;2023-02-28T14:49:35;12.00;12.00;10.25
75960;PMS7003;64644;48.914;2.254;2023-02-28T14:52:05;17.25;13.25;10.50
75960;PMS7003;64644;48.914;2.254;2023-02-28T14:54:41;12.25;9.00;8.00
75960;PMS7003;64644;48.914;2.254;2023-02-28T14:57:29;16.00;14.75;11.50
75960;PMS7003;64644;48.914;2.254;2023-02-28T15:02:41;12.00;12.00;9.00
75960;PMS7003;64644;48.914;2.254;2023-02-28T15:07:42;14.75;13.25;9.00
75960;PMS7003;64644;48.914;2.254;2023-02-28T15:12:47;10.50;10.50;7.75
75960;PMS7003;64644;48.914;2.254;2023-02-28T15:15:26;11.00;11.00;9.00
75960;PMS7003;64644;48.914;2.254;2023-02-28T15:18:00;11.50;11.50;8.75
75960;PMS7003;64644;48.914;2.254;2023-02-28T15:20:30;9.50;9.50;7.75
75960;PMS7003;64644;48.914;2.254;2023-02-28T15:22:57;13.25;13.25;9.00
75960;PMS7003;64644;48.914;2.254;2023-02-28T15:25:23;13.75;12.00;9.50
75960;PMS7003;64644;48.914;2.254;2023-02-28T15:27:50;12.25;11.75;8.75
75960;PMS7003;64644;48.914;2.254;2023-02-28T15:30:20;10.50;10.50;8.00
75960;PMS7003;64644;48.914;2.254;2023-02-28T15:33:06;11.75;10.00;8.00
75960;PMS7003;64644;48.914;2.254;2023-02-28T15:35:33;9.50;9.50;8.00
75960;PMS7003;64644;48.914;2.254;2023-02-28T15:40:31;11.00;10.50;8.50
75960;PMS7003;64644;48.914;2.254;2023-02-28T15:43:06;12.50;10.50;7.75
75960;PMS7003;64644;48.914;2.254;2023-02-28T15:45:33;15.75;13.75;8.00
75960;PMS7003;64644;48.914;2.254;2023-02-28T15:48:03;14.25;11.50;8.25
75960;PMS7003;64644;48.914;2.254;2023-02-28T15:50:30;11.25;9.25;7.00
75960;PMS7003;64644;48.914;2.254;2023-02-28T15:52:56;12.00;12.00;8.75
75960;PMS7003;64644;48.914;2.254;2023-02-28T15:55:23;12.00;12.00;8.50
75960;PMS7003;64644;48.914;2.254;2023-02-28T15:57:53;10.50;10.00;8.50
75960;PMS7003;64644;48.914;2.254;2023-02-28T16:00:22;14.00;12.00;8.00
75960;PMS7003;64644;48.914;2.254;2023-02-28T16:02:49;11.00;10.25;7.25
75960;PMS7003;64644;48.914;2.254;2023-02-28T16:05:19;13.50;10.50;5.25
75960;PMS7003;64644;48.914;2.254;2023-02-28T16:07:46;14.25;13.00;8.00
75960;PMS7003;64644;48.914;2.254;2023-02-28T16:10:14;14.00;11.25;8.25
75960;PMS7003;64644;48.914;2.254;2023-02-28T16:12:39;13.00;10.00;8.00
75960;PMS7003;64644;48.914;2.254;2023-02-28T16:15:06;9.25;9.25;8.00
75960;PMS7003;64644;48.914;2.254;2023-02-28T16:17:34;12.00;12.00;10.75
75960;PMS7003;64644;48.914;2.254;2023-02-28T16:20:13;17.25;11.50;8.50
75960;PMS7003;64644;48.914;2.254;2023-02-28T16:22:41;9.25;9.25;8.00
75960;PMS7003;64644;48.914;2.254;2023-02-28T16:25:10;11.75;10.75;8.75
75960;PMS7003;64644;48.914;2.254;2023-02-28T16:27:38;10.50;9.00;5.50
75960;PMS7003;64644;48.914;2.254;2023-02-28T16:30:04;9.75;8.00;7.00
75960;PMS7003;64644;48.914;2.254;2023-02-28T16:32:30;10.75;10.75;8.00
75960;PMS7003;64644;48.914;2.254;2023-02-28T16:34:59;11.25;11.25;7.75
75960;PMS7003;64644;48.914;2.254;2023-02-28T16:37:25;11.00;11.00;7.50
75960;PMS7003;64644;48.914;2.254;2023-02-28T16:39:51;11.75;10.00;7.00
75960;PMS7003;64644;48.914;2.254;2023-02-28T16:42:23;11.75;10.50;7.75
75960;PMS7003;64644;48.914;2.254;2023-02-28T16:44:52;11.25;10.25;8.00
75960;PMS7003;64644;48.914;2.254;2023-02-28T16:47:18;10.00;10.00;7.75
75960;PMS7003;64644;48.914;2.254;2023-02-28T16:49:44;12.50;12.00;9.75
75960;PMS7003;64644;48.914;2.254;2023-02-28T16:52:10;18.00;14.00;10.00
75960;PMS7003;64644;48.914;2.254;2023-02-28T16:54:36;11.00;11.00;8.00
75960;PMS7003;64644;48.914;2.254;2023-02-28T16:57:02;13.25;13.25;7.50
75960;PMS7003;64644;48.914;2.254;2023-02-28T16:59:29;9.75;9.25;7.25
75960;PMS7003;64644;48.914;2.254;2023-02-28T17:01:55;10.75;10.75;7.75
75960;PMS7003;64644;48.914;2.254;2023-02-28T17:04:22;12.50;12.25;10.00
75960;PMS7003;64644;48.914;2.254;2023-02-28T17:06:49;11.50;9.00;6.50
75960;PMS7003;64644;48.914;2.254;2023-02-28T17:09:22;11.25;11.25;8.50
75960;PMS7003;64644;48.914;2.254;2023-02-28T17:11:48;12.50;12.00;8.75